Terminal Aerodrome Forecast
Issued by NWS Charleston, WV

Current Version | Previous Version | Graphics & Text | Print | Product List | Glossary On
Versions: 1 2 3 4 5 6 7 8 9 10 11 12 13 14 15 16 17 18 19 20 21 22 23 24
954
FTUS41 KRLX 281727
TAFHTS
TAF
KHTS 281727Z 2818/2918 24008KT P6SM VCSH BKN030
     FM281900 25008KT 4SM SHRA VCTS BKN030CB
     FM282300 25007KT P6SM BKN030
     FM290200 27004KT 6SM BR SCT035
     FM290800 00000KT 2SM BR SCT010
     FM291300 VRB03KT 5SM BR BKN020
     FM291500 27005KT 6SM HZ BKN030=

USA.gov is the U.S. government's official web portal to all federal, state and local government web resources and services.